createdAt,value
2022-10-23T00:01:20.380Z,75.66
2022-10-23T00:03:52.824Z,75.58
2022-10-23T00:06:19.864Z,75.45
2022-10-23T00:08:47.624Z,75.51
2022-10-23T00:11:16.593Z,75.63
2022-10-23T00:13:43.674Z,75.67
2022-10-23T00:16:10.733Z,75.79
2022-10-23T00:18:38.680Z,75.77
2022-10-23T00:21:06.991Z,75.67
2022-10-23T00:23:34.520Z,75.75
2022-10-23T00:26:04.533Z,75.97
2022-10-23T00:28:31.582Z,76.05
2022-10-23T00:30:58.631Z,76.17
2022-10-23T00:33:25.786Z,76.17
2022-10-23T00:35:52.721Z,76.15
2022-10-23T00:38:19.769Z,76.10
2022-10-23T00:40:47.372Z,76.09
2022-10-23T00:43:23.312Z,76.28
2022-10-23T00:45:50.331Z,76.44
2022-10-23T00:48:17.993Z,76.42
2022-10-23T00:50:45.040Z,76.35
2022-10-23T00:53:12.513Z,76.42
2022-10-23T00:55:41.363Z,76.52
2022-10-23T00:58:08.331Z,76.65
2022-10-23T01:00:45.924Z,76.65
2022-10-23T01:03:14.513Z,76.69
2022-10-23T01:06:00.195Z,76.52
2022-10-23T01:09:05.263Z,76.56
2022-10-23T01:11:41.188Z,76.60
2022-10-23T01:14:15.219Z,76.69
2022-10-23T01:16:50.436Z,76.75
2022-10-23T01:19:35.347Z,76.58
2022-10-23T01:22:25.954Z,76.68
2022-10-23T01:25:03.370Z,76.69
2022-10-23T01:27:36.649Z,76.86
2022-10-23T01:30:03.636Z,76.74
2022-10-23T01:32:55.361Z,76.76
2022-10-23T01:35:46.162Z,76.87
2022-10-23T01:38:14.544Z,76.97
2022-10-23T01:40:49.273Z,77.19
2022-10-23T01:43:22.878Z,77.04
2022-10-23T01:45:51.939Z,76.98
2022-10-23T01:48:25.094Z,76.91
2022-10-23T01:50:53.738Z,77.12
2022-10-23T01:53:20.893Z,77.20
2022-10-23T01:55:48.250Z,77.08
2022-10-23T01:58:21.330Z,77.18
2022-10-23T02:00:48.624Z,77.18
2022-10-23T02:03:16.653Z,77.31
2022-10-23T02:05:43.807Z,77.29
2022-10-23T02:08:11.023Z,77.42
2022-10-23T02:10:55.350Z,77.31
2022-10-23T02:13:25.771Z,77.32
2022-10-23T02:16:04.514Z,77.42
2022-10-23T02:18:44.404Z,77.50
2022-10-23T02:21:14.043Z,77.48
2022-10-23T02:24:02.972Z,77.48
2022-10-23T02:26:33.006Z,77.46
2022-10-23T02:29:07.535Z,77.56
2022-10-23T02:31:35.887Z,77.65
2022-10-23T02:34:03.038Z,77.56
2022-10-23T02:36:30.082Z,77.50
2022-10-23T02:38:57.641Z,77.47
2022-10-23T02:41:32.369Z,77.62
2022-10-23T02:44:04.332Z,77.69
2022-10-23T02:46:38.971Z,77.48
2022-10-23T02:49:31.992Z,77.49
2022-10-23T02:52:18.123Z,77.50
2022-10-23T02:55:11.703Z,77.57
2022-10-23T02:57:48.866Z,77.66
2022-10-23T03:00:17.452Z,77.55
2022-10-23T03:02:45.761Z,77.53
2022-10-23T03:05:20.037Z,77.61
2022-10-23T03:07:48.314Z,77.78
2022-10-23T03:10:16.722Z,77.79
2022-10-23T03:12:43.871Z,77.77
2022-10-23T03:15:12.341Z,77.69
2022-10-23T03:17:40.213Z,77.77
2022-10-23T03:20:07.953Z,77.84
2022-10-23T03:22:36.027Z,77.98
2022-10-23T03:25:03.175Z,77.98
2022-10-23T03:27:31.482Z,77.81
2022-10-23T03:29:59.932Z,77.73
2022-10-23T03:32:26.995Z,77.85
2022-10-23T03:34:54.233Z,78.00
2022-10-23T03:37:22.621Z,77.92
2022-10-23T03:39:50.576Z,77.84
2022-10-23T03:42:17.730Z,77.90
2022-10-23T03:44:44.876Z,77.94
2022-10-23T03:47:12.536Z,77.98
2022-10-23T03:49:39.893Z,77.98
2022-10-23T03:52:07.306Z,77.82
2022-10-23T03:54:34.703Z,77.83
2022-10-23T03:57:01.750Z,77.91
2022-10-23T03:59:30.263Z,77.93
2022-10-23T04:01:58.677Z,77.89
2022-10-23T04:04:26.192Z,77.78
2022-10-23T04:14:39.564Z,77.72
2022-10-23T04:17:07.105Z,77.53
2022-10-23T04:19:34.365Z,77.39
2022-10-23T04:22:01.507Z,77.41
2022-10-23T04:24:28.672Z,77.43
2022-10-23T04:26:56.434Z,77.55
2022-10-23T04:29:28.792Z,77.52
2022-10-23T04:31:55.747Z,77.30
2022-10-23T04:34:22.771Z,77.30
2022-10-23T04:36:52.434Z,77.44
2022-10-23T04:39:19.582Z,77.45
2022-10-23T04:41:47.408Z,77.25
2022-10-23T04:44:14.684Z,77.21
2022-10-23T04:46:41.707Z,77.18
2022-10-23T04:49:09.802Z,77.24
2022-10-23T04:52:09.491Z,77.25
2022-10-23T04:54:50.054Z,77.09
2022-10-23T04:58:04.460Z,77.03
2022-10-23T05:02:17.159Z,76.95
2022-10-23T05:08:56.957Z,76.63
2022-10-23T05:11:42.941Z,76.58
2022-10-23T05:14:10.306Z,76.64
2022-10-23T05:16:39.088Z,76.89
2022-10-23T05:19:07.189Z,76.77
2022-10-23T05:21:34.822Z,76.66
2022-10-23T05:24:04.936Z,76.68
2022-10-23T05:26:32.392Z,76.70
2022-10-23T05:29:04.765Z,76.71
2022-10-23T05:31:32.734Z,76.59
2022-10-23T05:34:06.808Z,76.37
2022-10-23T05:36:35.228Z,76.35
2022-10-23T05:39:04.023Z,76.19
2022-10-23T05:41:32.092Z,76.04
2022-10-23T05:43:59.446Z,75.86
2022-10-23T05:46:52.596Z,75.45
2022-10-23T05:49:39.918Z,75.40
2022-10-23T05:52:22.549Z,75.36
2022-10-23T05:55:04.837Z,75.30
2022-10-23T05:57:48.169Z,75.07
2022-10-23T06:00:19.236Z,74.89
2022-10-23T06:02:54.164Z,74.85
2022-10-23T06:05:30.855Z,74.79
2022-10-23T06:08:16.629Z,74.74
2022-10-23T06:10:48.967Z,74.54
2022-10-23T06:13:16.022Z,74.43
2022-10-23T06:15:43.678Z,74.31
2022-10-23T06:18:22.547Z,74.12
2022-10-23T06:20:56.526Z,74.06
2022-10-23T06:23:25.712Z,73.87
2022-10-23T06:26:14.360Z,73.66
2022-10-23T06:29:16.838Z,73.47
2022-10-23T06:31:44.195Z,73.18
2022-10-23T06:34:12.676Z,73.15
2022-10-23T06:36:39.857Z,73.15
2022-10-23T06:39:28.468Z,73.14
2022-10-23T06:42:16.970Z,73.11
2022-10-23T06:44:57.186Z,73.12
2022-10-23T06:47:43.209Z,73.19
2022-10-23T06:50:32.821Z,73.23
2022-10-23T06:53:05.893Z,73.26
2022-10-23T06:55:33.870Z,73.10
2022-10-23T06:58:00.958Z,72.62
2022-10-23T07:00:28.905Z,72.36
2022-10-23T07:02:56.792Z,72.36
2022-10-23T07:05:23.795Z,72.17
2022-10-23T07:07:50.885Z,72.11
2022-10-23T07:10:23.365Z,72.03
2022-10-23T07:13:01.249Z,71.92
2022-10-23T07:15:37.218Z,71.89
2022-10-23T07:18:05.509Z,71.91
2022-10-23T07:20:49.745Z,71.79
2022-10-23T07:23:16.801Z,71.91
2022-10-23T07:25:44.583Z,72.13
2022-10-23T07:28:13.661Z,72.28
2022-10-23T07:30:41.606Z,72.05
2022-10-23T07:33:12.598Z,72.03
2022-10-23T07:35:57.217Z,71.94
2022-10-23T07:38:28.054Z,71.58
2022-10-23T07:40:58.109Z,71.17
2022-10-23T07:43:26.372Z,70.60
2022-10-23T07:45:53.706Z,70.32
2022-10-23T07:48:27.418Z,70.10
2022-10-23T07:51:03.807Z,70.13
2022-10-23T07:53:31.125Z,70.04
2022-10-23T07:56:32.279Z,69.76
2022-10-23T07:59:15.092Z,69.38
2022-10-23T08:01:48.184Z,69.56
2022-10-23T08:04:16.410Z,69.77
2022-10-23T08:07:03.775Z,69.96
2022-10-23T08:09:38.401Z,69.88
2022-10-23T08:12:05.963Z,69.58
2022-10-23T08:14:32.915Z,69.42
2022-10-23T08:19:52.614Z,69.01
2022-10-23T08:22:19.953Z,69.13
2022-10-23T08:24:47.000Z,69.08
2022-10-23T08:27:14.353Z,68.88
2022-10-23T08:29:44.302Z,69.06
2022-10-23T08:32:12.194Z,68.88
2022-10-23T08:34:53.111Z,68.65
2022-10-23T08:37:24.062Z,68.36
2022-10-23T08:39:53.249Z,67.78
2022-10-23T08:42:29.918Z,67.66
2022-10-23T08:45:30.562Z,67.35
2022-10-23T08:48:19.519Z,67.16
2022-10-23T08:51:42.185Z,66.98
2022-10-23T08:54:53.961Z,66.87
2022-10-23T08:57:22.347Z,67.18
2022-10-23T08:59:58.095Z,67.28
2022-10-23T09:02:25.129Z,66.77
2022-10-23T09:04:53.927Z,66.50
2022-10-23T09:07:36.445Z,66.29
2022-10-23T09:10:13.106Z,66.12
2022-10-23T09:12:42.525Z,66.33
2022-10-23T09:15:15.701Z,66.02
2022-10-23T09:17:43.959Z,65.92
2022-10-23T09:20:22.178Z,65.48
2022-10-23T09:22:50.980Z,65.20
2022-10-23T09:25:19.967Z,64.96
2022-10-23T09:27:50.662Z,64.63
2022-10-23T09:30:39.969Z,64.63
2022-10-23T09:33:34.879Z,64.60
2022-10-23T09:36:04.462Z,64.65
2022-10-23T09:38:35.416Z,64.49
2022-10-23T09:41:27.342Z,64.25
2022-10-23T09:44:07.854Z,64.06
2022-10-23T09:46:44.296Z,63.87
2022-10-23T09:49:30.981Z,63.80
2022-10-23T09:52:10.435Z,63.57
2022-10-23T09:54:39.625Z,63.58
2022-10-23T09:57:20.086Z,63.55
2022-10-23T09:59:51.629Z,63.70
2022-10-23T10:02:37.318Z,64.14
2022-10-23T10:05:29.858Z,64.35
2022-10-23T10:08:19.922Z,64.06
2022-10-23T10:12:51.616Z,63.21
2022-10-23T10:15:29.720Z,62.62
2022-10-23T10:18:17.964Z,62.43
2022-10-23T10:20:45.019Z,61.87
2022-10-23T10:23:27.530Z,61.51
2022-10-23T10:25:57.951Z,60.44
2022-10-23T10:28:32.470Z,58.28
2022-10-23T10:31:18.578Z,55.80
2022-10-23T10:34:01.077Z,53.58
2022-10-23T10:36:31.917Z,52.44
2022-10-23T10:39:03.469Z,51.54
2022-10-23T10:41:36.868Z,50.95
2022-10-23T10:44:35.499Z,51.48
2022-10-23T10:47:09.623Z,52.10
2022-10-23T10:49:50.577Z,51.85
2022-10-23T10:52:23.215Z,52.02
2022-10-23T10:55:02.452Z,51.99
2022-10-23T10:57:43.407Z,52.23
2022-10-23T11:00:18.427Z,52.04
2022-10-23T11:03:07.619Z,51.27
2022-10-23T11:05:52.829Z,49.94
2022-10-23T11:08:40.201Z,48.90
2022-10-23T11:11:32.625Z,47.56
2022-10-23T11:13:59.728Z,46.02
2022-10-23T11:16:31.774Z,45.24
2022-10-23T11:19:11.274Z,45.12
2022-10-23T11:22:04.366Z,43.92
2022-10-23T11:24:34.800Z,43.14
2022-10-23T11:27:22.321Z,42.52
2022-10-23T11:30:13.307Z,41.45
2022-10-23T11:33:02.187Z,41.58
2022-10-23T11:35:51.250Z,41.06
2022-10-23T11:38:27.347Z,40.41
2022-10-23T11:41:00.131Z,39.25
2022-10-23T11:43:31.563Z,38.46
2022-10-23T11:45:58.895Z,38.55
2022-10-23T11:48:48.061Z,38.33
2022-10-23T11:51:35.288Z,38.04
2022-10-23T11:54:11.748Z,38.33
2022-10-23T11:56:39.647Z,38.04
2022-10-23T11:59:23.867Z,38.05
2022-10-23T12:01:51.056Z,37.87
2022-10-23T12:04:22.112Z,37.94
2022-10-23T12:07:00.797Z,37.61
2022-10-23T12:10:25.071Z,37.85
2022-10-23T12:12:59.799Z,37.60
2022-10-23T12:15:27.568Z,37.93
2022-10-23T12:17:55.629Z,37.63
2022-10-23T12:20:53.251Z,37.36
2022-10-23T12:23:23.726Z,37.54
2022-10-23T12:26:28.882Z,37.55
2022-10-23T12:29:21.310Z,37.17
2022-10-23T12:31:51.737Z,37.04
2022-10-23T12:34:40.494Z,37.21
2022-10-23T12:37:29.858Z,37.45
2022-10-23T12:39:57.250Z,37.71
2022-10-23T12:42:28.770Z,37.93
2022-10-23T12:45:08.813Z,38.76
2022-10-23T12:47:35.888Z,39.43
2022-10-23T12:50:05.334Z,39.83
2022-10-23T12:52:35.901Z,39.98
2022-10-23T12:55:13.204Z,39.99
2022-10-23T12:57:45.053Z,40.65
2022-10-23T13:00:21.004Z,41.09
2022-10-23T13:03:04.025Z,41.20
2022-10-23T13:05:31.069Z,41.39
2022-10-23T13:07:58.525Z,41.58
2022-10-23T13:10:35.302Z,41.87
2022-10-23T13:13:06.358Z,41.57
2022-10-23T13:15:41.168Z,41.54
2022-10-23T13:18:09.269Z,41.64
2022-10-23T13:20:38.342Z,41.36
2022-10-23T13:23:09.896Z,40.85
2022-10-23T13:25:38.112Z,40.86
2022-10-23T13:28:08.388Z,41.13
2022-10-23T13:30:38.408Z,41.03
2022-10-23T13:33:21.127Z,41.34
2022-10-23T13:35:58.622Z,41.84
2022-10-23T13:39:07.820Z,42.17
2022-10-23T13:41:53.017Z,42.40
2022-10-23T13:44:21.818Z,42.63
2022-10-23T13:46:49.283Z,42.89
2022-10-23T13:49:16.533Z,42.87
2022-10-23T13:51:50.115Z,43.13
2022-10-23T13:54:22.125Z,43.33
2022-10-23T13:56:49.431Z,43.50
2022-10-23T13:59:17.656Z,43.92
2022-10-23T14:01:46.265Z,44.38
2022-10-23T14:04:13.773Z,44.86
2022-10-23T14:06:40.899Z,45.08
2022-10-23T14:09:09.664Z,45.38
2022-10-23T14:11:36.834Z,45.96
2022-10-23T14:14:03.987Z,46.21
2022-10-23T14:16:33.596Z,46.56
2022-10-23T14:19:00.865Z,46.95
2022-10-23T14:21:27.908Z,47.24
2022-10-23T14:23:55.144Z,47.13
2022-10-23T14:26:24.907Z,47.51
2022-10-23T14:28:53.132Z,47.82
2022-10-23T14:31:20.384Z,48.13
2022-10-23T14:33:51.781Z,48.41
2022-10-23T14:38:55.510Z,49.53
2022-10-23T14:41:23.109Z,49.84
2022-10-23T14:43:50.159Z,50.06
2022-10-23T14:46:19.299Z,50.20
2022-10-23T14:48:48.226Z,50.50
2022-10-23T14:51:22.869Z,51.16
2022-10-23T14:53:51.427Z,51.53
2022-10-23T14:56:19.153Z,51.88
2022-10-23T14:58:46.162Z,52.30
2022-10-23T15:01:13.315Z,52.60
2022-10-23T15:04:01.416Z,53.20
2022-10-23T15:06:51.804Z,53.60
2022-10-23T15:09:29.492Z,53.73
2022-10-23T15:12:25.935Z,53.87
2022-10-23T15:14:53.103Z,54.11
2022-10-23T15:17:20.050Z,54.35
2022-10-23T15:19:47.124Z,54.71
2022-10-23T15:22:14.143Z,55.06
2022-10-23T15:24:41.190Z,55.31
2022-10-23T15:29:40.127Z,56.06
2022-10-23T15:32:07.964Z,56.27
2022-10-23T15:34:35.318Z,56.56
2022-10-23T15:37:02.469Z,57.17
2022-10-23T15:39:33.967Z,57.55
2022-10-23T15:42:01.273Z,58.09
2022-10-23T15:44:29.431Z,58.56
2022-10-23T15:46:59.361Z,58.78
2022-10-23T15:49:27.523Z,59.00
2022-10-23T15:51:54.707Z,59.12
2022-10-23T15:54:22.241Z,59.28
2022-10-23T15:56:50.827Z,59.35
2022-10-23T15:59:20.325Z,59.61
2022-10-23T16:01:48.635Z,59.77
2022-10-23T16:04:16.485Z,60.26
2022-10-23T16:06:45.078Z,60.60
2022-10-23T16:09:17.266Z,60.99
2022-10-23T16:19:46.169Z,62.32
2022-10-23T16:22:13.129Z,62.48
2022-10-23T16:24:40.106Z,62.77
2022-10-23T16:27:07.839Z,62.84
2022-10-23T16:29:34.769Z,63.04
2022-10-23T16:32:01.825Z,63.12
2022-10-23T16:34:28.885Z,63.22
2022-10-23T16:36:56.122Z,63.49
2022-10-23T16:39:52.661Z,63.74
2022-10-23T16:42:45.804Z,64.07
2022-10-23T16:45:34.458Z,64.35
2022-10-23T16:48:04.274Z,64.52
2022-10-23T16:50:31.258Z,64.64
2022-10-23T16:52:58.478Z,64.66
2022-10-23T16:55:25.449Z,64.77
2022-10-23T16:57:52.363Z,64.91
2022-10-23T17:00:22.491Z,65.08
2022-10-23T17:02:49.555Z,65.26
2022-10-23T17:05:16.681Z,65.43
2022-10-23T17:07:44.134Z,65.58
2022-10-23T17:10:12.312Z,65.83
2022-10-23T17:12:39.458Z,65.98
2022-10-23T17:15:07.469Z,66.15
2022-10-23T17:17:34.475Z,66.28
2022-10-23T17:20:01.524Z,66.61
2022-10-23T17:22:29.283Z,66.79
2022-10-23T17:24:56.327Z,66.90
2022-10-23T17:27:23.293Z,66.98
2022-10-23T17:29:50.318Z,67.16
2022-10-23T17:32:17.325Z,67.35
2022-10-23T17:34:44.514Z,67.49
2022-10-23T17:37:13.510Z,67.58
2022-10-23T17:39:40.999Z,67.66
2022-10-23T17:42:08.019Z,67.57
2022-10-23T17:44:36.287Z,67.79
2022-10-23T17:47:03.437Z,67.81
2022-10-23T17:49:30.402Z,67.88
2022-10-23T17:51:58.001Z,68.06
2022-10-23T17:54:25.619Z,68.07
2022-10-23T17:56:52.770Z,67.96
2022-10-23T17:59:20.132Z,67.91
2022-10-23T18:01:48.502Z,68.03
2022-10-23T18:04:16.919Z,68.08
2022-10-23T18:06:45.796Z,68.37
2022-10-23T18:09:12.905Z,68.45
2022-10-23T18:11:45.339Z,68.61
2022-10-23T18:14:16.151Z,68.72
2022-10-23T18:16:43.689Z,68.72
2022-10-23T18:19:10.930Z,68.74
2022-10-23T18:21:38.298Z,68.82
2022-10-23T18:24:05.956Z,68.87
2022-10-23T18:26:35.340Z,69.05
2022-10-23T18:29:04.542Z,69.21
2022-10-23T18:31:31.724Z,69.42
2022-10-23T18:34:01.565Z,69.29
2022-10-23T18:36:30.285Z,69.11
2022-10-23T18:38:57.340Z,69.06
2022-10-23T18:41:24.688Z,69.21
2022-10-23T18:43:52.143Z,69.24
2022-10-23T18:46:19.393Z,69.41
2022-10-23T18:48:47.278Z,69.51
2022-10-23T18:51:20.046Z,69.62
2022-10-23T18:53:47.604Z,69.58
2022-10-23T18:56:16.095Z,69.40
2022-10-23T18:58:43.231Z,69.39
2022-10-23T19:01:10.441Z,69.48
2022-10-23T19:03:37.529Z,69.67
2022-10-23T19:06:06.840Z,69.70
2022-10-23T19:08:37.495Z,69.87
2022-10-23T19:11:06.653Z,70.02
2022-10-23T19:13:39.021Z,70.10
2022-10-23T19:16:22.367Z,69.99
2022-10-23T19:18:52.477Z,70.11
2022-10-23T19:21:20.450Z,70.06
2022-10-23T19:23:47.597Z,70.19
2022-10-23T19:26:14.746Z,70.18
2022-10-23T19:28:44.384Z,70.33
2022-10-23T19:31:12.633Z,70.58
2022-10-23T19:33:39.892Z,70.55
2022-10-23T19:36:11.183Z,70.54
2022-10-23T19:38:41.465Z,70.47
2022-10-23T19:41:08.811Z,70.70
2022-10-23T19:43:37.944Z,71.02
2022-10-23T19:46:09.272Z,71.20
2022-10-23T19:48:42.665Z,71.35
2022-10-23T19:51:13.565Z,71.11
2022-10-23T19:53:42.905Z,70.84
2022-10-23T19:56:10.971Z,71.02
2022-10-23T19:58:38.407Z,70.96
2022-10-23T20:01:14.069Z,70.99
2022-10-23T20:03:41.922Z,71.12
2022-10-23T20:06:13.783Z,71.16
2022-10-23T20:08:41.051Z,71.24
2022-10-23T20:11:08.187Z,71.21
2022-10-23T20:13:35.355Z,71.14
2022-10-23T20:16:02.643Z,71.31
2022-10-23T20:18:30.760Z,71.26
2022-10-23T20:20:57.808Z,71.30
2022-10-23T20:23:24.806Z,71.34
2022-10-23T20:25:51.907Z,71.42
2022-10-23T20:28:22.126Z,71.37
2022-10-23T20:30:49.172Z,71.43
2022-10-23T20:33:16.214Z,71.45
2022-10-23T20:35:43.668Z,71.45
2022-10-23T20:38:10.721Z,71.62
2022-10-23T20:40:37.735Z,71.78
2022-10-23T20:43:04.751Z,71.92
2022-10-23T20:45:32.013Z,72.07
2022-10-23T20:47:59.146Z,72.10
2022-10-23T20:50:26.160Z,71.89
2022-10-23T20:52:53.141Z,71.85
2022-10-23T20:55:20.261Z,71.82
2022-10-23T20:57:47.416Z,71.73
2022-10-23T21:00:15.785Z,71.74
2022-10-23T21:02:45.948Z,72.06
2022-10-23T21:05:15.815Z,72.13
2022-10-23T21:07:42.761Z,72.14
2022-10-23T21:10:10.018Z,72.38
2022-10-23T21:12:37.121Z,72.42
2022-10-23T21:15:04.756Z,72.65
2022-10-23T21:17:35.977Z,72.69
2022-10-23T21:20:03.731Z,72.66
2022-10-23T21:22:30.674Z,72.51
2022-10-23T21:24:59.074Z,72.38
2022-10-23T21:27:26.406Z,72.28
2022-10-23T21:29:53.365Z,72.27
2022-10-23T21:32:21.014Z,72.28
2022-10-23T21:34:47.982Z,72.16
2022-10-23T21:37:15.319Z,72.23
2022-10-23T21:39:43.034Z,72.31
2022-10-23T21:42:10.823Z,72.14
2022-10-23T21:44:37.748Z,72.11
2022-10-23T21:47:04.775Z,71.99
2022-10-23T21:49:32.055Z,71.87
2022-10-23T21:51:58.999Z,71.94
2022-10-23T21:54:25.942Z,71.95
2022-10-23T21:56:55.739Z,71.89
2022-10-23T21:59:25.805Z,72.04
2022-10-23T22:01:54.862Z,71.88
2022-10-23T22:04:22.169Z,71.67
2022-10-23T22:06:56.637Z,71.58
2022-10-23T22:09:24.341Z,71.40
2022-10-23T22:11:52.445Z,71.34
2022-10-23T22:14:21.666Z,71.39
2022-10-23T22:16:52.639Z,71.42
2022-10-23T22:19:20.634Z,71.63
2022-10-23T22:21:48.573Z,71.92
2022-10-23T22:24:16.209Z,72.00
2022-10-23T22:26:45.475Z,71.92
2022-10-23T22:30:16.797Z,71.95
2022-10-23T22:32:47.116Z,71.81
2022-10-23T22:35:14.988Z,71.79
2022-10-23T22:37:41.944Z,71.84
2022-10-23T22:40:09.809Z,71.95
2022-10-23T22:42:38.689Z,71.87
2022-10-23T22:45:06.346Z,71.77
2022-10-23T22:47:33.496Z,71.81
2022-10-23T22:50:01.275Z,71.80
2022-10-23T22:52:28.307Z,71.78
2022-10-23T22:54:55.483Z,71.78
2022-10-23T22:57:22.522Z,71.88
2022-10-23T22:59:49.578Z,71.94
2022-10-23T23:02:16.907Z,72.00
2022-10-23T23:04:43.851Z,71.90
2022-10-23T23:07:12.025Z,71.89
2022-10-23T23:09:40.113Z,72.01
2022-10-23T23:12:07.758Z,72.02
2022-10-23T23:14:34.803Z,72.24
2022-10-23T23:17:02.054Z,72.40
2022-10-23T23:19:29.103Z,72.56
2022-10-23T23:21:57.223Z,72.47
2022-10-23T23:24:25.245Z,72.54
2022-10-23T23:26:52.327Z,72.52
2022-10-23T23:29:19.441Z,72.64
2022-10-23T23:31:46.549Z,72.70
2022-10-23T23:34:13.524Z,72.92
2022-10-23T23:36:41.155Z,73.04
2022-10-23T23:39:08.235Z,73.08
2022-10-23T23:41:35.149Z,73.18
2022-10-23T23:44:02.326Z,73.21
2022-10-23T23:46:29.345Z,73.14
2022-10-23T23:48:56.309Z,73.12
2022-10-23T23:51:24.360Z,73.31
2022-10-23T23:53:51.835Z,73.56
2022-10-23T23:56:19.376Z,73.58
2022-10-23T23:58:46.438Z,73.51
